createdAt,value
2019-02-11T00:04:23.287Z,1.32
2019-02-11T00:10:25.607Z,2.40
2019-02-11T00:16:27.772Z,1.07
2019-02-11T00:22:29.947Z,2.25
2019-02-11T00:28:32.374Z,0.68
2019-02-11T00:34:34.729Z,1.30
2019-02-11T00:40:40.678Z,2.50
2019-02-11T00:46:42.925Z,2.25
2019-02-11T00:52:45.077Z,0.90
2019-02-11T00:58:47.368Z,0.30
2019-02-11T01:04:51.667Z,0.33
2019-02-11T01:10:54.020Z,0.50
2019-02-11T01:16:57.400Z,0.30
2019-02-11T01:22:59.687Z,0.68
2019-02-11T01:29:02.972Z,0.62
2019-02-11T01:35:05.585Z,0.42
2019-02-11T01:41:07.935Z,1.55
2019-02-11T01:47:11.183Z,2.15
2019-02-11T01:53:13.359Z,2.02
2019-02-11T01:59:15.660Z,3.12
2019-02-11T02:05:19.956Z,2.62
2019-02-11T02:11:22.362Z,3.25
2019-02-11T02:17:24.635Z,3.87
2019-02-11T02:23:27.914Z,5.62
2019-02-11T02:29:31.347Z,2.15
2019-02-11T02:35:33.796Z,3.87
2019-02-11T02:41:36.115Z,3.10
2019-02-11T02:47:41.482Z,3.30
2019-02-11T02:53:43.676Z,4.10
2019-02-11T02:59:45.889Z,3.67
2019-02-11T03:05:49.466Z,1.02
2019-02-11T03:11:51.881Z,2.17
2019-02-11T03:17:54.438Z,1.75
2019-02-11T03:23:56.647Z,2.90
2019-02-11T03:29:58.829Z,3.37
2019-02-11T03:36:01.008Z,6.42
2019-02-11T03:42:04.467Z,4.17
2019-02-11T03:48:06.727Z,2.15
2019-02-11T03:54:08.927Z,1.72
2019-02-11T04:00:11.590Z,1.67
2019-02-11T04:06:13.899Z,0.40
2019-02-11T04:12:18.324Z,0.75
2019-02-11T04:18:20.563Z,1.15
2019-02-11T04:24:22.983Z,2.15
2019-02-11T04:30:25.283Z,0.78
2019-02-11T04:36:27.553Z,0.60
2019-02-11T04:42:29.860Z,4.53
2019-02-11T04:48:33.127Z,1.20
2019-02-11T04:54:35.344Z,0.70
2019-02-11T05:00:37.508Z,1.15
2019-02-11T05:06:42.231Z,0.98
2019-02-11T05:12:44.532Z,3.12
2019-02-11T05:18:47.811Z,4.12
2019-02-11T05:24:51.154Z,4.95
2019-02-11T05:30:53.434Z,3.87
2019-02-11T05:36:55.652Z,2.75
2019-02-11T05:42:58.072Z,2.92
2019-02-11T05:49:00.317Z,15.72
2019-02-11T05:55:02.514Z,9.75
2019-02-11T06:01:05.815Z,4.87
2019-02-11T06:07:08.144Z,2.47
2019-02-11T06:13:12.488Z,2.83
2019-02-11T06:19:14.805Z,3.70
2019-02-11T06:25:17.162Z,4.25
2019-02-11T06:31:19.461Z,4.83
2019-02-11T06:37:23.039Z,4.70
2019-02-11T06:43:25.379Z,4.58
2019-02-11T06:49:33.415Z,2.20
2019-02-11T06:55:35.631Z,2.65
2019-02-11T07:01:37.953Z,4.28
2019-02-11T07:07:41.255Z,3.58
2019-02-11T07:13:45.607Z,5.60
2019-02-11T07:19:49.903Z,7.17
2019-02-11T07:25:53.275Z,4.50
2019-02-11T07:31:57.575Z,3.50
2019-02-11T07:38:01.459Z,4.35
2019-02-11T07:44:05.620Z,4.67
2019-02-11T07:50:09.875Z,3.25
2019-02-11T07:56:12.221Z,5.25
2019-02-11T08:02:14.476Z,5.30
2019-02-11T08:08:16.801Z,4.85
2019-02-11T08:14:21.284Z,5.80
2019-02-11T08:20:23.847Z,9.00
2019-02-11T08:26:26.128Z,7.55
2019-02-11T08:32:29.472Z,8.90
2019-02-11T08:38:32.156Z,9.08
2019-02-11T08:44:34.745Z,5.78
2019-02-11T08:50:37.554Z,5.67
2019-02-11T08:56:39.933Z,6.92
2019-02-11T09:02:42.330Z,7.42
2019-02-11T09:08:44.799Z,5.37
2019-02-11T09:14:50.183Z,9.98
2019-02-11T09:20:54.630Z,8.33
2019-02-11T09:26:58.578Z,11.45
2019-02-11T09:33:00.958Z,6.35
2019-02-11T09:39:04.915Z,11.38
2019-02-11T09:45:09.808Z,10.68
2019-02-11T09:51:13.230Z,8.90
2019-02-11T09:57:15.522Z,7.75
2019-02-11T10:03:17.874Z,6.55
2019-02-11T10:09:20.725Z,5.72
2019-02-11T10:15:25.197Z,5.53
2019-02-11T10:21:29.587Z,7.33
2019-02-11T10:27:31.968Z,8.15
2019-02-11T10:33:34.350Z,6.28
2019-02-11T10:39:36.696Z,6.47
2019-02-11T10:45:39.013Z,7.97
2019-02-11T10:51:42.307Z,7.87
2019-02-11T10:57:44.530Z,2.30
2019-02-11T11:03:47.390Z,2.40
2019-02-11T11:09:50.650Z,2.72
2019-02-11T11:15:53.112Z,3.15
2019-02-11T11:21:55.743Z,4.62
2019-02-11T11:27:58.072Z,3.58
2019-02-11T11:34:00.455Z,5.33
2019-02-11T11:40:04.330Z,3.22
2019-02-11T11:46:06.811Z,2.10
2019-02-11T11:52:09.079Z,2.50
2019-02-11T11:58:11.296Z,2.90
2019-02-11T12:04:13.702Z,3.15
2019-02-11T12:10:16.311Z,5.17
2019-02-11T12:16:18.695Z,4.37
2019-02-11T12:22:20.958Z,6.08
2019-02-11T12:28:23.159Z,5.90
2019-02-11T12:34:25.537Z,6.78
2019-02-11T12:40:29.089Z,5.90
2019-02-11T12:46:32.411Z,8.43
2019-02-11T12:52:34.731Z,9.33
2019-02-11T12:58:38.560Z,6.85
2019-02-11T13:04:42.281Z,6.22
2019-02-11T13:10:45.073Z,7.90
2019-02-11T13:16:48.674Z,5.40
2019-02-11T13:22:51.031Z,6.80
2019-02-11T13:28:53.254Z,7.58
2019-02-11T13:34:56.050Z,4.72
2019-02-11T13:40:58.679Z,6.37
2019-02-11T13:47:00.896Z,10.20
2019-02-11T13:53:04.251Z,11.43
2019-02-11T13:59:06.599Z,5.50
2019-02-11T14:05:08.996Z,6.85
2019-02-11T14:11:11.553Z,10.53
2019-02-11T14:17:14.887Z,9.25
2019-02-11T14:23:18.413Z,6.45
2019-02-11T14:29:20.709Z,9.63
2019-02-11T14:35:23.183Z,9.45
2019-02-11T14:41:26.405Z,12.98
2019-02-11T14:47:28.839Z,9.48
2019-02-11T14:53:33.197Z,7.37
2019-02-11T14:59:35.406Z,4.75
2019-02-11T15:05:37.840Z,9.08
2019-02-11T15:11:40.195Z,4.78
2019-02-11T15:17:42.794Z,4.15
2019-02-11T15:23:45.098Z,8.20
2019-02-11T15:29:47.303Z,8.53
2019-02-11T15:35:49.596Z,6.37
2019-02-11T15:41:51.961Z,12.20
2019-02-11T15:47:54.449Z,10.55
2019-02-11T15:53:57.816Z,8.38
2019-02-11T16:00:00.036Z,11.03
2019-02-11T16:06:10.261Z,11.20
2019-02-11T16:12:07.967Z,13.68
2019-02-11T16:18:11.428Z,12.35
2019-02-11T16:24:13.822Z,19.70
2019-02-11T16:30:17.758Z,21.70
2019-02-11T16:36:20.116Z,33.53
2019-02-11T16:42:22.547Z,18.23
2019-02-11T16:48:24.915Z,21.35
2019-02-11T16:54:29.838Z,27.75
2019-02-11T17:00:32.644Z,28.73
2019-02-11T17:06:34.958Z,24.67
2019-02-11T17:12:40.421Z,23.60
2019-02-11T17:18:43.458Z,19.27
2019-02-11T17:24:47.022Z,20.92
2019-02-11T17:30:50.434Z,18.17
2019-02-11T17:36:53.294Z,20.70
2019-02-11T17:42:55.670Z,18.20
2019-02-11T17:48:59.160Z,16.48
2019-02-11T17:55:01.586Z,17.67
2019-02-11T18:01:06.929Z,13.48
2019-02-11T18:07:10.270Z,15.45
2019-02-11T18:13:13.555Z,14.50
2019-02-11T18:19:25.774Z,13.18
2019-02-11T18:25:22.106Z,14.07
2019-02-11T18:31:24.405Z,14.05
2019-02-11T18:37:26.857Z,16.75
2019-02-11T18:43:29.152Z,20.30
2019-02-11T18:49:36.038Z,15.20
2019-02-11T18:55:40.262Z,19.35
2019-02-11T19:01:42.692Z,13.53
2019-02-11T19:07:47.548Z,15.00
2019-02-11T19:13:50.715Z,17.30
2019-02-11T19:19:53.403Z,15.70
2019-02-11T19:25:55.776Z,13.48
2019-02-11T19:31:59.413Z,14.13
2019-02-11T19:38:01.975Z,12.73
2019-02-11T19:44:04.300Z,13.90
2019-02-11T19:50:13.457Z,16.05
2019-02-11T19:56:16.246Z,15.18
2019-02-11T20:02:19.834Z,15.25
2019-02-11T20:08:23.427Z,18.67
2019-02-11T20:14:27.241Z,20.17
2019-02-11T20:20:35.283Z,18.67
2019-02-11T20:26:37.854Z,17.05
2019-02-11T20:32:40.509Z,14.63
2019-02-11T20:38:43.861Z,16.93
2019-02-11T20:44:46.758Z,24.47
2019-02-11T20:50:49.075Z,15.85
2019-02-11T20:56:53.668Z,19.62
2019-02-11T21:02:56.962Z,18.67
2019-02-11T21:08:59.390Z,15.98
2019-02-11T21:15:01.707Z,15.80
2019-02-11T21:21:04.039Z,14.95
2019-02-11T21:27:06.644Z,8.83
2019-02-11T21:33:08.987Z,8.38
2019-02-11T21:39:11.624Z,8.78
2019-02-11T21:45:15.004Z,9.58
2019-02-11T21:51:17.475Z,8.95
2019-02-11T21:57:21.861Z,8.73
2019-02-11T22:03:24.067Z,9.68
2019-02-11T22:09:26.320Z,13.35
2019-02-11T22:15:28.682Z,16.15
2019-02-11T22:21:31.835Z,22.22
2019-02-11T22:27:34.093Z,21.12
2019-02-11T22:33:36.415Z,22.42
2019-02-11T22:39:48.462Z,21.30
2019-02-11T22:45:51.654Z,19.67
2019-02-11T22:51:53.991Z,16.82
2019-02-11T22:57:56.504Z,16.77
2019-02-11T23:03:58.651Z,19.12
2019-02-11T23:10:01.145Z,11.40
2019-02-11T23:16:03.364Z,10.88
2019-02-11T23:22:06.046Z,10.80
2019-02-11T23:28:08.297Z,14.95
2019-02-11T23:34:10.595Z,16.57
2019-02-11T23:40:12.896Z,20.10
2019-02-11T23:46:15.235Z,18.40
2019-02-11T23:52:17.503Z,18.77
2019-02-11T23:58:19.707Z,19.20
